KSYI/SYI METAR and TAF weather

Enter ICAO airport designator
Station Type Date Time Source
KSYI METAR 2021/01/22 06:35 UTC NOAA

KSYI 220635Z AUTO 00000KT 2SM BR SCT002 02/02 A2996 RMK A01


Station Type Date Time Source
KSYI Decoded METAR 2021/01/22 06:35 UTC NOAA

Station name not available
Jan 22, 2021 - 01:35 AM EST / 2021.01.22 0635 UTC
Wind: Calm:0
Visibility: 2 mile(s):0
Sky conditions: partly cloudy
Weather: mist
Temperature: 35 F (2 C)
Dew Point: 35 F (2 C)
Relative Humidity: 100%
Pressure (altimeter): 29.96 in. Hg (1014 hPa)
ob: KSYI 220635Z AUTO 00000KT 2SM BR SCT002 02/02 A2996 RMK A01
cycle: 6

Station Type Date Time Source
KSYI TAF UTC NOAA

Error!

Example: see airport list